Time;durP1;ratioP1;P1;durP2;ratioP2;P2;SDS_P1;SDS_P2;PMS_P1;PMS_P2;Temp;Humidity;BMP_temperature;BMP_pressure;BME280_temperature;BME280_humidity;BME280_pressure;Samples;Min_cycle;Max_cycle;Signal;HPM_P1;HPM_P2
2021/05/28 00:00:51;;;;;;;11.93;3.72;;;;;;;10.24;73.26;102254.00;5072784;28;20033;-53
2021/05/28 00:03:18;;;;;;;11.35;3.60;;;;;;;10.25;73.38;102257.59;5073366;28;20090;-52
2021/05/28 00:05:46;;;;;;;10.02;3.58;;;;;;;10.23;73.02;102257.81;5072790;28;20040;-53
2021/05/28 00:08:14;;;;;;;9.68;3.70;;;;;;;10.21;73.01;102262.66;5073064;28;20048;-52
2021/05/28 00:10:41;;;;;;;11.52;3.65;;;;;;;10.21;73.06;102265.38;5072855;28;20121;-54
2021/05/28 00:13:10;;;;;;;11.70;3.50;;;;;;;10.21;73.03;102261.81;5072879;28;20044;-52
2021/05/28 00:15:39;;;;;;;8.68;3.38;;;;;;;10.17;73.13;102258.75;5072516;28;20078;-48
2021/05/28 00:18:08;;;;;;;6.38;3.33;;;;;;;10.17;73.12;102264.19;5072943;28;20510;-56
2021/05/28 00:20:37;;;;;;;10.57;3.83;;;;;;;10.17;73.20;102257.91;5073221;28;20495;-53
2021/05/28 00:23:04;;;;;;;10.73;3.78;;;;;;;10.17;73.25;102269.66;5072591;28;20079;-51
2021/05/28 00:25:32;;;;;;;10.15;3.88;;;;;;;10.18;73.24;102271.28;5072736;28;20090;-55
2021/05/28 00:28:00;;;;;;;9.68;4.35;;;;;;;10.22;73.06;102272.50;5072632;28;20078;-51
2021/05/28 00:30:27;;;;;;;10.15;3.92;;;;;;;10.23;72.43;102267.88;5072646;28;20072;-51
2021/05/28 00:32:55;;;;;;;8.98;4.07;;;;;;;10.20;72.73;102269.19;5071668;28;20048;-55
2021/05/28 00:35:23;;;;;;;8.95;3.75;;;;;;;10.20;72.91;102271.06;5058580;28;20052;-50
2021/05/28 00:37:50;;;;;;;10.18;4.40;;;;;;;10.18;72.89;102265.84;5072579;28;20110;-52
2021/05/28 00:40:18;;;;;;;8.98;3.97;;;;;;;10.16;72.84;102273.41;5072325;28;20071;-55
2021/05/28 00:42:46;;;;;;;9.93;4.30;;;;;;;10.17;73.08;102260.63;5072246;28;20467;-51
2021/05/28 00:45:14;;;;;;;8.40;3.85;;;;;;;10.20;73.10;102257.47;5072289;28;20076;-50
2021/05/28 00:47:42;;;;;;;7.15;3.80;;;;;;;10.21;72.44;102259.09;5072196;28;20126;-53
2021/05/28 00:50:10;;;;;;;9.85;3.63;;;;;;;10.21;72.45;102259.09;5072105;28;20063;-54
2021/05/28 00:52:38;;;;;;;10.55;4.38;;;;;;;10.19;72.41;102259.31;5072570;28;20072;-52
2021/05/28 00:55:07;;;;;;;10.00;5.05;;;;;;;10.16;72.49;102262.53;5072321;28;20049;-51
2021/05/28 00:57:34;;;;;;;13.25;5.97;;;;;;;10.13;72.67;102273.06;5072092;28;20490;-54
2021/05/28 01:00:05;;;;;;;13.68;5.35;;;;;;;10.12;72.49;102269.47;5072269;28;20040;-51
2021/05/28 01:02:32;;;;;;;12.60;5.05;;;;;;;10.11;72.51;102264.28;5072377;28;20044;-51
2021/05/28 01:05:00;;;;;;;9.80;4.30;;;;;;;10.10;72.33;102268.91;5072135;28;20150;-52
2021/05/28 01:07:28;;;;;;;10.05;4.38;;;;;;;10.10;72.19;102268.91;5071990;28;20036;-54
2021/05/28 01:09:55;;;;;;;11.13;4.85;;;;;;;10.10;72.44;102268.91;5072386;28;20045;-50
2021/05/28 01:12:23;;;;;;;10.18;4.57;;;;;;;10.10;72.43;102266.19;5071704;28;20049;-52
2021/05/28 01:14:50;;;;;;;9.45;3.95;;;;;;;10.11;72.27;102272.44;5072174;28;20064;-53
2021/05/28 01:17:21;;;;;;;11.73;4.22;;;;;;;10.10;72.03;102273.50;5072082;28;20049;-53
2021/05/28 01:19:49;;;;;;;8.90;4.10;;;;;;;10.07;72.36;102277.50;5072316;28;20165;-52
2021/05/28 01:22:19;;;;;;;10.40;4.10;;;;;;;10.07;72.56;102274.78;5072207;28;20079;-52
2021/05/28 01:24:47;;;;;;;8.18;4.22;;;;;;;10.06;72.51;102278.56;5072213;28;20097;-52
2021/05/28 01:27:17;;;;;;;10.18;4.53;;;;;;;10.05;72.24;102271.44;5071508;28;20449;-51
2021/05/28 01:29:45;;;;;;;10.73;4.40;;;;;;;10.05;72.08;102273.34;5071897;28;20056;-51
2021/05/28 01:32:14;;;;;;;9.30;4.32;;;;;;;10.01;72.01;102270.25;5071904;28;20060;-50
2021/05/28 01:34:42;;;;;;;9.27;4.70;;;;;;;9.98;71.90;102270.69;5070193;28;20052;-50
2021/05/28 01:37:10;;;;;;;11.55;5.43;;;;;;;9.96;71.60;102272.84;5072263;28;20088;-54
2021/05/28 01:39:46;;;;;;;12.35;5.00;;;;;;;9.91;71.54;102270.81;5071731;28;20048;-53
2021/05/28 01:42:13;;;;;;;9.70;4.70;;;;;;;9.89;71.50;102269.38;5070273;28;20075;-52
2021/05/28 01:44:43;;;;;;;10.57;4.70;;;;;;;9.87;71.13;102268.75;5071687;28;20094;-48
2021/05/28 01:47:10;;;;;;;12.63;5.53;;;;;;;9.84;71.40;102263.75;5071994;28;20044;-52
2021/05/28 01:49:43;;;;;;;8.52;4.38;;;;;;;9.80;71.38;102266.94;5072347;28;20600;-52
2021/05/28 01:52:11;;;;;;;10.10;4.47;;;;;;;9.76;71.52;102263.00;5071855;28;20076;-51
2021/05/28 01:54:39;;;;;;;10.40;4.68;;;;;;;9.73;72.10;102262.63;5071725;28;20044;-55
2021/05/28 01:57:12;;;;;;;10.50;5.03;;;;;;;9.77;71.74;102274.75;5071426;28;20037;-53
2021/05/28 01:59:40;;;;;;;13.68;4.40;;;;;;;9.80;71.67;102269.66;5071741;28;20049;-51
2021/05/28 02:02:07;;;;;;;11.98;5.25;;;;;;;9.84;71.97;102271.91;5071786;28;20090;-52
2021/05/28 02:04:35;;;;;;;12.60;4.65;;;;;;;9.86;71.36;102267.09;5072698;28;20094;-50
2021/05/28 02:07:03;;;;;;;11.48;4.72;;;;;;;9.85;71.28;102265.44;5075830;28;20040;-51
2021/05/28 02:09:45;;;;;;;10.25;4.90;;;;;;;9.80;71.22;102257.94;5075137;28;20047;-50
2021/05/28 02:12:12;;;;;;;10.32;4.70;;;;;;;9.78;71.55;102260.06;5073976;28;20044;-49
2021/05/28 02:14:40;;;;;;;9.05;4.90;;;;;;;9.75;71.57;102265.97;5075292;28;20044;-49
2021/05/28 02:17:09;;;;;;;9.77;5.00;;;;;;;9.72;71.71;102256.38;5075650;28;20080;-54
2021/05/28 02:19:37;;;;;;;10.07;4.72;;;;;;;9.74;71.37;102262.41;5074389;28;20044;-50
2021/05/28 02:22:10;;;;;;;11.00;4.85;;;;;;;9.76;71.30;102263.00;5075426;28;20483;-55
2021/05/28 02:24:38;;;;;;;10.13;4.80;;;;;;;9.78;71.25;102277.22;5074971;28;20044;-53
2021/05/28 02:27:09;;;;;;;12.27;5.00;;;;;;;9.79;71.03;102275.34;5063215;28;20040;-55
2021/05/28 02:29:37;;;;;;;8.68;4.75;;;;;;;9.77;70.91;102274.75;5076709;28;20098;-54
2021/05/28 02:32:05;;;;;;;9.80;4.60;;;;;;;9.73;71.19;102274.34;5076295;28;20489;-54
2021/05/28 02:34:33;;;;;;;8.20;4.35;;;;;;;9.73;71.19;102274.34;5076308;28;20074;-53
2021/05/28 02:37:00;;;;;;;11.43;4.95;;;;;;;9.74;71.38;102281.47;5076064;28;20047;-55
2021/05/28 02:39:28;;;;;;;11.05;5.10;;;;;;;9.76;71.52;102283.94;5074732;28;20048;-55
2021/05/28 02:41:55;;;;;;;10.80;5.00;;;;;;;9.79;71.55;102288.97;5074714;28;20075;-54
2021/05/28 02:44:23;;;;;;;11.82;5.65;;;;;;;9.79;71.19;102284.34;5073681;28;20095;-51
2021/05/28 02:46:51;;;;;;;14.40;5.85;;;;;;;9.78;71.73;102288.09;5074754;28;20139;-51
2021/05/28 02:49:18;;;;;;;12.27;5.72;;;;;;;9.77;71.72;102294.63;5074476;28;20052;-50
2021/05/28 02:51:46;;;;;;;13.18;5.25;;;;;;;9.76;71.81;102290.22;5074981;28;20049;-53
2021/05/28 02:54:13;;;;;;;12.77;5.53;;;;;;;9.77;72.02;102291.91;5074367;28;20048;-56
2021/05/28 02:56:41;;;;;;;10.82;5.63;;;;;;;9.74;71.83;102300.53;5073890;28;20071;-50
2021/05/28 02:59:09;;;;;;;13.13;5.85;;;;;;;9.73;71.97;102306.19;5074406;28;20407;-54
2021/05/28 03:01:36;;;;;;;12.52;5.85;;;;;;;9.72;72.19;102305.34;5074595;28;20044;-54
2021/05/28 03:04:04;;;;;;;13.02;5.80;;;;;;;9.72;72.22;102304.53;5074524;28;20133;-52
2021/05/28 03:06:32;;;;;;;12.93;6.07;;;;;;;9.71;72.32;102306.41;5074290;28;20135;-52
2021/05/28 03:09:00;;;;;;;16.33;6.35;;;;;;;9.70;72.00;102312.09;5073767;28;20049;-52
2021/05/28 03:11:27;;;;;;;14.93;6.47;;;;;;;9.70;72.43;102307.47;5074687;28;20503;-49
2021/05/28 03:13:55;;;;;;;13.65;6.38;;;;;;;9.72;72.54;102310.81;5074618;28;20044;-48
2021/05/28 03:16:24;;;;;;;12.45;6.25;;;;;;;9.73;72.77;102312.44;5072733;28;20245;-51
2021/05/28 03:18:55;;;;;;;11.52;6.40;;;;;;;9.72;73.36;102316.25;5074047;28;20098;-53
2021/05/28 03:23:53;;;;;;;11.95;5.75;;;;;;;9.66;73.48;102319.84;5073886;28;20132;-51
2021/05/28 03:26:22;;;;;;;7.20;5.03;;;;;;;9.59;74.06;102328.06;5074133;28;20040;-53
2021/05/28 03:28:51;;;;;;;7.53;4.90;;;;;;;9.56;73.89;102322.25;5083865;28;20494;-52
2021/05/28 03:31:19;;;;;;;7.30;4.72;;;;;;;9.49;74.32;102330.47;5094121;28;20105;-54
2021/05/28 03:33:47;;;;;;;8.93;5.35;;;;;;;9.48;74.48;102330.72;5093968;28;20409;-48
2021/05/28 03:36:16;;;;;;;8.52;5.25;;;;;;;9.50;74.38;102336.75;5093837;28;20118;-53
2021/05/28 03:38:44;;;;;;;8.77;5.68;;;;;;;9.51;74.43;102341.16;5093310;28;20071;-51
2021/05/28 03:41:12;;;;;;;10.32;5.40;;;;;;;9.52;74.33;102337.38;5093821;28;20082;-52
2021/05/28 03:43:40;;;;;;;8.10;5.30;;;;;;;9.52;74.36;102337.38;5086907;28;20040;-53
2021/05/28 03:46:07;;;;;;;9.07;5.40;;;;;;;9.52;73.79;102337.38;5093463;28;20121;-53
2021/05/28 03:48:35;;;;;;;8.55;5.22;;;;;;;9.51;74.18;102335.72;5093462;28;20086;-53
2021/05/28 03:51:03;;;;;;;8.95;5.55;;;;;;;9.52;74.16;102338.19;5093460;28;20048;-55
2021/05/28 03:53:30;;;;;;;9.23;5.60;;;;;;;9.53;74.10;102339.88;5093227;28;20448;-54
2021/05/28 03:55:59;;;;;;;10.13;5.72;;;;;;;9.52;74.37;102349.06;5092669;28;20052;-49
2021/05/28 03:58:26;;;;;;;10.98;5.75;;;;;;;9.54;74.30;102351.59;5093679;28;20058;-49
2021/05/28 04:00:54;;;;;;;8.73;5.32;;;;;;;9.55;74.41;102348.66;5093497;28;20452;-49
2021/05/28 04:03:21;;;;;;;10.18;5.82;;;;;;;9.53;74.16;102356.19;5093218;28;20068;-52
2021/05/28 04:05:49;;;;;;;16.63;6.13;;;;;;;9.48;74.60;102345.16;5093384;28;20080;-53
2021/05/28 04:08:17;;;;;;;9.88;4.95;;;;;;;9.25;75.20;102343.03;5093077;28;20048;-54
2021/05/28 04:10:44;;;;;;;7.75;4.72;;;;;;;9.17;76.17;102343.31;5093334;28;20449;-54
2021/05/28 04:13:12;;;;;;;33.10;6.65;;;;;;;9.06;75.70;102350.28;5093601;28;20040;-51
2021/05/28 04:15:39;;;;;;;7.70;4.90;;;;;;;9.02;76.62;102353.66;5093048;28;20719;-52
2021/05/28 04:18:08;;;;;;;14.55;4.70;;;;;;;9.06;76.51;102354.91;5093162;28;20052;-53
2021/05/28 04:20:37;;;;;;;9.15;5.07;;;;;;;9.04;76.30;102351.56;5092568;28;20080;-54
2021/05/28 04:23:04;;;;;;;7.70;4.65;;;;;;;9.06;76.98;102352.19;5093425;28;20059;-47
2021/05/28 04:25:32;;;;;;;7.05;4.70;;;;;;;9.16;76.74;102357.97;5092926;28;20540;-55
2021/05/28 04:27:59;;;;;;;7.88;4.63;;;;;;;9.23;75.74;102356.03;5092756;28;20051;-52
2021/05/28 04:30:27;;;;;;;13.15;4.75;;;;;;;9.18;74.88;102350.41;5093003;28;20052;-51
2021/05/28 04:32:55;;;;;;;10.63;4.40;;;;;;;8.98;75.35;102360.63;5092827;28;20074;-52
2021/05/28 04:35:23;;;;;;;19.73;4.95;;;;;;;8.87;75.74;102365.69;5092622;28;20048;-52
2021/05/28 04:37:50;;;;;;;7.25;4.38;;;;;;;8.74;76.59;102371.22;5093066;28;20463;-50
2021/05/28 04:40:19;;;;;;;6.95;4.18;;;;;;;8.72;77.35;102370.59;5092661;28;20061;-51
2021/05/28 04:42:47;;;;;;;7.13;5.00;;;;;;;8.81;77.50;102374.72;5072598;28;20064;-48
2021/05/28 04:45:15;;;;;;;5.40;4.00;;;;;;;8.85;76.51;102380.53;5072248;28;20093;-52
2021/05/28 04:47:42;;;;;;;6.78;4.30;;;;;;;8.86;76.88;102387.66;5072917;28;20465;-51
2021/05/28 04:50:10;;;;;;;6.55;4.22;;;;;;;8.90;76.22;102388.91;5070852;28;20048;-52
2021/05/28 04:52:38;;;;;;;5.97;3.90;;;;;;;9.00;77.10;102383.00;5072302;28;20040;-50
2021/05/28 04:55:07;;;;;;;6.43;4.00;;;;;;;9.04;76.17;102384.19;5072186;28;20418;-52
2021/05/28 04:57:35;;;;;;;10.70;4.65;;;;;;;9.02;76.03;102383.56;5072030;28;20045;-52
2021/05/28 05:00:07;;;;;;;6.78;4.35;;;;;;;8.89;76.57;102374.44;5071217;28;20045;-52
2021/05/28 05:02:35;;;;;;;10.02;4.90;;;;;;;8.89;76.49;102374.44;5071957;28;20376;-51
2021/05/28 05:05:04;;;;;;;8.32;4.43;;;;;;;8.79;76.86;102379.53;5071762;28;20089;-53
2021/05/28 05:07:32;;;;;;;5.57;4.00;;;;;;;8.73;77.43;102388.53;5072043;28;20072;-53
2021/05/28 05:10:00;;;;;;;6.63;4.30;;;;;;;8.81;77.17;102388.31;5072250;28;20079;-51
2021/05/28 05:12:27;;;;;;;7.13;4.10;;;;;;;8.93;77.85;102393.91;4368611;28;10000613;-51
2021/05/28 05:14:55;;;;;;;7.38;4.75;;;;;;;9.04;76.77;102395.06;5069671;28;20052;-51
2021/05/28 05:17:23;;;;;;;7.47;5.22;;;;;;;9.14;77.01;102398.16;5068663;28;20097;-51
2021/05/28 05:19:50;;;;;;;9.35;5.13;;;;;;;9.13;76.25;102396.47;5069258;28;20043;-51
2021/05/28 05:22:18;;;;;;;9.10;5.78;;;;;;;9.06;76.95;102401.94;5069286;28;20083;-55
2021/05/28 05:24:46;;;;;;;9.32;5.38;;;;;;;9.02;76.71;102398.03;5069855;28;20040;-50
2021/05/28 05:27:18;;;;;;;9.38;5.78;;;;;;;9.06;77.30;102404.66;5069283;28;20059;-53
2021/05/28 05:29:46;;;;;;;8.70;5.63;;;;;;;9.07;76.90;102406.34;5069650;28;20094;-53
2021/05/28 05:32:15;;;;;;;9.05;5.45;;;;;;;9.09;77.25;102406.97;5069439;28;20388;-53
2021/05/28 05:34:42;;;;;;;8.85;5.70;;;;;;;9.15;77.37;102413.41;5068536;28;20075;-54
2021/05/28 05:37:10;;;;;;;10.40;6.05;;;;;;;9.13;76.69;102415.50;5069477;28;20036;-53
2021/05/28 05:39:38;;;;;;;8.18;5.78;;;;;;;9.01;77.28;102409.94;5070682;28;20071;-54
2021/05/28 05:42:06;;;;;;;7.78;5.03;;;;;;;9.04;77.50;102414.94;5073522;28;20029;-51
2021/05/28 05:44:34;;;;;;;8.55;6.22;;;;;;;9.14;77.43;102412.59;5073515;28;20049;-54
2021/05/28 05:47:02;;;;;;;8.90;6.22;;;;;;;9.15;77.16;102419.69;5072200;28;20072;-51
2021/05/28 05:49:30;;;;;;;10.70;6.15;;;;;;;9.15;77.67;102418.84;5040800;28;20074;-56
2021/05/28 05:51:57;;;;;;;9.88;5.95;;;;;;;9.17;77.76;102419.47;5057165;28;20641;-55
2021/05/28 05:54:26;;;;;;;8.85;6.15;;;;;;;9.25;77.83;102421.09;5053295;28;20049;-53
2021/05/28 05:56:53;;;;;;;10.73;6.80;;;;;;;9.33;77.18;102427.09;5052850;28;20489;-54
2021/05/28 05:59:21;;;;;;;11.05;6.40;;;;;;;9.40;77.31;102427.03;5052720;28;20565;-53
2021/05/28 06:01:49;;;;;;;9.23;6.43;;;;;;;9.47;76.84;102429.72;5053108;28;20068;-51
2021/05/28 06:04:16;;;;;;;10.32;7.03;;;;;;;9.51;76.75;102433.66;5052727;28;20068;-55
2021/05/28 06:06:44;;;;;;;10.88;6.50;;;;;;;9.55;76.95;102434.91;5053237;28;20044;-54
2021/05/28 06:09:12;;;;;;;10.35;6.65;;;;;;;9.60;76.39;102435.06;5053167;28;20077;-53
2021/05/28 06:11:40;;;;;;;11.50;6.90;;;;;;;9.63;75.99;102437.34;5052223;28;20646;-55
2021/05/28 06:14:08;;;;;;;11.35;6.60;;;;;;;9.57;76.18;102433.63;5053179;28;20155;-55
2021/05/28 06:16:35;;;;;;;10.63;6.70;;;;;;;9.47;75.68;102433.25;5048730;28;20119;-54
2021/05/28 06:19:03;;;;;;;11.65;7.38;;;;;;;9.39;75.98;102437.09;5045441;28;20063;-52
2021/05/28 06:21:31;;;;;;;11.50;6.85;;;;;;;9.38;76.42;102435.44;5052831;28;20082;-54
2021/05/28 06:24:00;;;;;;;9.43;6.20;;;;;;;9.44;76.64;102449.19;5052884;28;20791;-53
2021/05/28 06:26:28;;;;;;;8.73;5.90;;;;;;;9.52;76.56;102448.91;5052522;28;20044;-52
2021/05/28 06:28:55;;;;;;;10.70;6.60;;;;;;;9.58;76.10;102448.06;5052522;28;20106;-52
2021/05/28 06:31:23;;;;;;;9.38;6.47;;;;;;;9.56;76.82;102453.69;5052253;28;20075;-55
2021/05/28 06:33:51;;;;;;;8.70;6.10;;;;;;;9.58;76.26;102453.50;5052711;28;20106;-52
2021/05/28 06:36:18;;;;;;;10.93;6.18;;;;;;;9.56;76.35;102453.69;5051979;28;20084;-56
2021/05/28 06:38:46;;;;;;;12.45;7.50;;;;;;;9.55;76.77;102454.78;5052250;28;20052;-55
2021/05/28 06:41:14;;;;;;;11.27;7.43;;;;;;;9.51;76.48;102460.88;5052587;28;20041;-53
2021/05/28 06:43:41;;;;;;;12.38;8.02;;;;;;;9.47;76.76;102455.03;5052608;28;20060;-55
2021/05/28 06:46:09;;;;;;;10.95;7.72;;;;;;;9.52;76.77;102457.09;5051845;28;20049;-53
2021/05/28 06:48:36;;;;;;;10.32;6.70;;;;;;;9.50;76.29;102460.06;5051683;28;20061;-54
2021/05/28 06:51:04;;;;;;;13.82;6.63;;;;;;;9.61;76.56;102461.22;5038659;28;20102;-53
2021/05/28 06:53:32;;;;;;;9.07;6.05;;;;;;;9.71;76.10;102463.44;5052399;28;20068;-53
2021/05/28 06:55:59;;;;;;;8.80;5.97;;;;;;;9.70;75.68;102465.34;5051925;28;20065;-52
2021/05/28 06:58:28;;;;;;;9.38;5.68;;;;;;;9.68;75.75;102467.44;5053421;28;20041;-56
2021/05/28 07:00:56;;;;;;;10.55;6.03;;;;;;;9.72;75.18;102463.22;5052289;28;20045;-52
2021/05/28 07:03:26;;;;;;;9.77;6.40;;;;;;;9.77;75.10;102468.81;5053347;28;20060;-56
2021/05/28 07:05:54;;;;;;;8.35;5.70;;;;;;;9.76;75.50;102466.31;5052621;28;20048;-53
2021/05/28 07:08:22;;;;;;;11.57;6.78;;;;;;;9.76;75.34;102464.41;5053696;28;20106;-52
2021/05/28 07:10:50;;;;;;;10.25;6.60;;;;;;;9.82;75.33;102468.16;5053642;28;20036;-53
2021/05/28 07:13:18;;;;;;;9.45;6.20;;;;;;;9.89;75.36;102473.56;5054211;28;20067;-56
2021/05/28 07:15:46;;;;;;;21.35;6.55;;;;;;;9.94;74.91;102473.72;5053075;28;20037;-54
2021/05/28 07:18:13;;;;;;;9.55;6.45;;;;;;;9.99;75.23;102473.88;5053559;28;20443;-54
2021/05/28 07:20:41;;;;;;;10.18;6.30;;;;;;;10.05;75.08;102474.88;5053868;28;20044;-54
2021/05/28 07:23:11;;;;;;;10.27;6.45;;;;;;;10.05;74.34;102472.16;5053801;28;20551;-54
2021/05/28 07:25:38;;;;;;;9.88;6.75;;;;;;;10.03;74.60;102475.09;5053837;28;20053;-52
2021/05/28 07:28:06;;;;;;;9.20;6.43;;;;;;;10.02;74.69;102468.81;5053649;28;20045;-54
2021/05/28 07:30:34;;;;;;;9.40;6.38;;;;;;;10.10;74.76;102470.44;5053163;28;20040;-55
2021/05/28 07:33:01;;;;;;;11.77;7.47;;;;;;;10.11;74.25;102477.53;5053573;28;20045;-53
2021/05/28 07:35:29;;;;;;;10.45;6.97;;;;;;;10.11;74.58;102477.53;5053032;28;20037;-53
2021/05/28 07:37:59;;;;;;;10.88;7.47;;;;;;;10.10;74.38;102475.88;5053190;28;20104;-56
2021/05/28 07:40:27;;;;;;;11.20;7.30;;;;;;;10.14;74.74;102473.53;5053372;28;20426;-51
2021/05/28 07:42:55;;;;;;;10.35;6.70;;;;;;;10.21;74.48;102477.84;5053372;28;20049;-54
2021/05/28 07:45:23;;;;;;;11.93;8.15;;;;;;;10.28;74.40;102472.38;5052637;28;20132;-54
2021/05/28 07:47:50;;;;;;;9.30;6.55;;;;;;;10.36;74.37;102472.06;5052872;28;20045;-52
2021/05/28 07:50:18;;;;;;;11.40;7.68;;;;;;;10.41;74.28;102477.69;5052931;28;20515;-52
2021/05/28 07:52:46;;;;;;;10.82;7.50;;;;;;;10.41;73.79;102483.16;5052906;28;20036;-53
2021/05/28 07:55:13;;;;;;;12.40;8.32;;;;;;;10.40;73.90;102481.47;5053170;28;20099;-54
2021/05/28 07:57:42;;;;;;;10.98;7.65;;;;;;;10.37;73.93;102476.47;5053990;28;20036;-53
2021/05/28 08:00:11;;;;;;;11.10;7.45;;;;;;;10.36;74.15;102477.50;5053697;28;20041;-55
2021/05/28 08:02:39;;;;;;;10.43;7.63;;;;;;;10.39;74.28;102473.50;5066065;28;20063;-55
2021/05/28 08:05:07;;;;;;;13.57;9.35;;;;;;;10.40;74.18;102480.63;5053771;28;20041;-53
2021/05/28 08:07:34;;;;;;;13.15;9.07;;;;;;;10.37;74.29;102481.91;5055094;28;20037;-56
2021/05/28 08:10:03;;;;;;;13.50;9.15;;;;;;;10.38;74.13;102480.03;5048766;28;20052;-53
2021/05/28 08:12:30;;;;;;;11.75;8.40;;;;;;;10.38;74.55;102482.75;5054615;28;20140;-57
2021/05/28 08:14:58;;;;;;;13.68;9.55;;;;;;;10.41;74.46;102471.38;5053815;28;20094;-56
2021/05/28 08:17:26;;;;;;;13.27;9.07;;;;;;;10.44;74.63;102471.78;5052090;28;20526;-55
2021/05/28 08:19:53;;;;;;;13.52;10.25;;;;;;;10.48;74.62;102461.25;5052991;28;20041;-55
2021/05/28 08:22:21;;;;;;;11.30;8.02;;;;;;;10.57;74.29;102473.53;5052734;28;20111;-56
2021/05/28 08:24:49;;;;;;;12.90;7.47;;;;;;;10.66;73.52;102474.88;5052749;28;20045;-53
2021/05/28 08:27:19;;;;;;;12.35;8.07;;;;;;;10.71;72.61;102471.47;5051840;28;20106;-53
2021/05/28 08:29:47;;;;;;;11.45;8.48;;;;;;;10.69;73.70;102472.75;5052266;28;20052;-54
2021/05/28 08:32:15;;;;;;;13.93;9.27;;;;;;;10.68;73.14;102473.81;5052134;28;20045;-54
2021/05/28 08:34:43;;;;;;;13.30;8.80;;;;;;;10.68;72.70;102474.66;5052346;28;20041;-52
2021/05/28 08:37:11;;;;;;;12.85;7.70;;;;;;;10.72;72.32;102478.56;5052395;28;20040;-52
2021/05/28 08:39:38;;;;;;;13.38;8.82;;;;;;;10.74;72.22;102475.63;5052280;28;20083;-54
2021/05/28 08:42:07;;;;;;;12.95;8.15;;;;;;;10.75;72.36;102471.84;5043854;28;20543;-54
2021/05/28 08:44:36;;;;;;;13.35;8.15;;;;;;;10.76;72.32;102468.06;5052569;28;20483;-54
2021/05/28 08:47:04;;;;;;;13.15;8.77;;;;;;;10.80;72.18;102466.53;5051238;28;20033;-54
2021/05/28 08:49:31;;;;;;;14.02;8.23;;;;;;;10.87;72.71;102464.53;5052331;28;20057;-53
2021/05/28 08:52:00;;;;;;;11.73;7.88;;;;;;;10.96;72.78;102462.34;5052429;28;20064;-56
2021/05/28 08:54:31;;;;;;;12.10;8.48;;;;;;;11.07;72.78;102470.59;5052245;28;20099;-55
2021/05/28 08:56:58;;;;;;;11.68;7.43;;;;;;;11.14;70.95;102470.50;5051543;28;20037;-53
2021/05/28 08:59:26;;;;;;;10.27;5.85;;;;;;;11.23;71.25;102468.25;5051851;28;20045;-53
2021/05/28 09:01:54;;;;;;;13.52;6.95;;;;;;;11.38;73.63;102471.41;5052107;28;20053;-54
2021/05/28 09:04:21;;;;;;;11.30;8.10;;;;;;;11.44;71.66;102472.38;5051854;28;20040;-53
2021/05/28 09:06:49;;;;;;;12.75;8.57;;;;;;;11.44;71.05;102462.28;5051892;28;20049;-51
2021/05/28 09:09:19;;;;;;;12.93;7.50;;;;;;;11.56;72.23;102467.75;5052132;28;20083;-56
2021/05/28 09:11:57;;;;;;;13.05;7.85;;;;;;;11.52;71.47;102467.41;5052366;28;20193;-56
2021/05/28 09:14:38;;;;;;;12.27;8.57;;;;;;;11.46;72.03;102462.88;5051988;28;20041;-57
2021/05/28 09:17:07;;;;;;;15.27;9.15;;;;;;;11.45;71.62;102463.97;5052188;28;20384;-61
2021/05/28 09:19:36;;;;;;;11.95;7.97;;;;;;;11.47;71.29;102464.56;5050893;28;20144;-58
2021/05/28 09:22:08;;;;;;;13.23;9.02;;;;;;;11.54;71.20;102461.72;5051802;28;20036;-51
2021/05/28 09:24:39;;;;;;;13.90;8.88;;;;;;;11.65;71.38;102460.09;5051655;28;20561;-55
2021/05/28 09:27:26;;;;;;;15.32;9.98;;;;;;;11.79;70.22;102461.53;5051634;28;20048;-53
2021/05/28 09:30:14;;;;;;;10.55;7.05;;;;;;;11.88;70.06;102449.22;5051681;28;20033;-54
2021/05/28 09:32:47;;;;;;;11.93;6.18;;;;;;;11.98;70.36;102458.69;5051490;28;20049;-53
2021/05/28 09:35:17;;;;;;;11.15;7.60;;;;;;;12.05;69.87;102456.69;5050999;28;20423;-55
2021/05/28 09:37:47;;;;;;;13.02;9.27;;;;;;;12.11;70.54;102453.00;5051967;28;20045;-55
2021/05/28 09:40:26;;;;;;;11.90;8.73;;;;;;;12.19;68.38;102451.81;5051160;28;20040;-57
2021/05/28 09:43:02;;;;;;;12.23;6.55;;;;;;;12.24;67.92;102449.19;5051598;28;20060;-56
2021/05/28 09:45:38;;;;;;;11.93;8.32;;;;;;;12.27;67.37;102441.34;5051457;28;20073;-54
2021/05/28 09:48:14;;;;;;;11.90;7.53;;;;;;;12.26;68.03;102442.41;5051020;28;20457;-51
2021/05/28 09:50:44;;;;;;;13.48;7.78;;;;;;;12.28;67.72;102442.19;5051572;28;20354;-55
2021/05/28 09:53:39;;;;;;;17.13;9.38;;;;;;;12.28;67.19;102439.44;5051879;28;20045;-55
2021/05/28 09:56:27;;;;;;;12.45;8.65;;;;;;;12.28;67.50;102434.81;5051171;28;20052;-51
2021/05/28 09:59:05;;;;;;;11.88;8.70;;;;;;;12.25;67.38;102438.03;5051578;28;20056;-55
2021/05/28 10:01:35;;;;;;;11.70;9.02;;;;;;;12.23;66.77;102434.69;5046688;28;20474;-55
2021/05/28 10:04:07;;;;;;;12.90;8.35;;;;;;;12.27;67.17;102424.97;5046503;28;20045;-56
2021/05/28 10:06:37;;;;;;;16.55;7.65;;;;;;;12.32;67.20;102429.72;5051084;28;20045;-54
2021/05/28 10:09:07;;;;;;;8.07;5.28;;;;;;;12.49;67.62;102427.88;5050687;28;20412;-53
2021/05/28 10:11:35;;;;;;;12.55;7.60;;;;;;;12.64;65.80;102427.38;5051369;28;20086;-52
2021/05/28 10:14:04;;;;;;;10.95;7.50;;;;;;;12.69;66.37;102432.94;5051643;28;20080;-52
2021/05/28 10:16:35;;;;;;;9.73;6.68;;;;;;;12.66;66.69;102427.97;5050781;28;20052;-58
2021/05/28 10:19:04;;;;;;;10.25;5.93;;;;;;;12.59;63.46;102432.72;5051587;28;20495;-56
2021/05/28 10:21:32;;;;;;;8.20;5.25;;;;;;;12.61;64.03;102425.13;5051061;28;20499;-54
2021/05/28 10:24:00;;;;;;;9.00;5.18;;;;;;;12.66;62.40;102417.03;5050733;28;20449;-52
2021/05/28 10:26:31;;;;;;;9.10;5.03;;;;;;;12.74;62.54;102419.34;5053648;28;20483;-54
2021/05/28 10:28:59;;;;;;;7.38;4.35;;;;;;;12.79;61.18;102413.16;5054788;28;20454;-54
2021/05/28 10:32:00;;;;;;;7.28;4.35;;;;;;;12.90;61.26;102416.94;5054743;28;20049;-53
2021/05/28 10:34:29;;;;;;;7.22;4.28;;;;;;;12.95;61.11;102414.28;5052091;28;20462;-52
2021/05/28 10:36:58;;;;;;;10.23;4.25;;;;;;;13.02;58.96;102419.63;5052144;28;20049;-51
2021/05/28 10:39:27;;;;;;;4.40;3.10;;;;;;;13.02;56.77;102414.16;5051839;28;20041;-54
2021/05/28 10:42:09;;;;;;;10.13;3.28;;;;;;;12.94;56.51;102418.09;5052201;28;20053;-54
2021/05/28 10:44:44;;;;;;;6.40;2.88;;;;;;;12.92;56.50;102425.75;5052318;28;20041;-54
2021/05/28 10:47:14;;;;;;;5.22;3.30;;;;;;;12.89;57.26;102415.25;5051702;28;20068;-54
2021/05/28 10:49:48;;;;;;;6.93;4.45;;;;;;;12.84;59.14;102416.00;5051899;28;20195;-52
2021/05/28 10:52:30;;;;;;;9.63;5.32;;;;;;;12.91;60.30;102418.59;5051620;28;20112;-53
2021/05/28 10:55:01;;;;;;;8.95;5.13;;;;;;;13.00;59.97;102415.22;5051997;28;20406;-56
2021/05/28 10:57:31;;;;;;;21.08;12.90;;;;;;;13.07;59.63;102409.59;5052060;28;20091;-51
2021/05/28 11:00:03;;;;;;;9.93;6.38;;;;;;;13.12;60.96;102415.16;5051952;28;20087;-51
2021/05/28 11:02:47;;;;;;;14.05;8.95;;;;;;;13.15;61.44;102400.16;5051822;28;20096;-56
2021/05/28 11:05:38;;;;;;;13.20;7.28;;;;;;;13.21;61.42;102412.84;5051675;28;20491;-55
2021/05/28 11:08:52;;;;;;;10.70;6.40;;;;;;;13.26;59.04;102415.69;5037669;28;20045;-54
2021/05/28 11:11:41;;;;;;;8.65;5.93;;;;;;;13.35;59.32;102410.69;5030523;28;20046;-57
2021/05/28 11:14:19;;;;;;;10.18;6.15;;;;;;;13.42;58.64;102405.84;5031830;28;20151;-55
2021/05/28 11:16:55;;;;;;;71.65;40.80;;;;;;;13.47;60.80;102405.94;5031269;28;20068;-54
2021/05/28 11:19:29;;;;;;;24.00;14.73;;;;;;;13.48;59.22;102402.13;5031762;28;20041;-54
2021/05/28 11:22:00;;;;;;;9.45;6.55;;;;;;;13.47;59.11;102397.72;5031219;28;20053;-51
2021/05/28 11:24:47;;;;;;;14.15;9.05;;;;;;;13.56;60.94;102398.94;5031286;28;20052;-58
2021/05/28 11:27:25;;;;;;;13.40;7.57;;;;;;;13.64;60.08;102401.28;5031472;28;20071;-54
2021/05/28 11:29:54;;;;;;;11.82;7.30;;;;;;;13.66;60.19;102400.19;5031444;28;20073;-55
2021/05/28 11:32:35;;;;;;;10.90;7.50;;;;;;;13.68;60.49;102401.59;5031422;28;20053;-55
2021/05/28 11:35:24;;;;;;;10.45;8.00;;;;;;;13.84;59.95;102388.97;5030907;28;20042;-57
2021/05/28 11:38:01;;;;;;;19.10;11.70;;;;;;;13.83;59.69;102395.56;5030313;28;20538;-56